Time;durP1;ratioP1;P1;durP2;ratioP2;P2;SDS_P1;SDS_P2;PMS_P1;PMS_P2;Temp;Humidity;BMP_temperature;BMP_pressure;BME280_temperature;BME280_humidity;BME280_pressure;Samples;Min_cycle;Max_cycle;Signal;HPM_P1;HPM_P2
2021/11/21 00:00:48;;;;;;;15.02;8.52;;;;;;;8.13;100.00;100399.69;5090600;28;20035;-76
2021/11/21 00:03:13;;;;;;;14.87;8.20;;;;;;;8.17;100.00;100403.72;5090101;28;20071;-76
2021/11/21 00:05:41;;;;;;;14.17;8.50;;;;;;;8.22;100.00;100398.75;5090524;28;20139;-76
2021/11/21 00:08:08;;;;;;;19.45;9.88;;;;;;;8.19;100.00;100390.25;5091038;28;20044;-76
2021/11/21 00:10:34;;;;;;;16.10;8.35;;;;;;;8.18;100.00;100381.44;5073423;28;20024;-76
2021/11/21 00:13:00;;;;;;;16.05;9.05;;;;;;;8.16;100.00;100394.06;5091225;28;20141;-76
2021/11/21 00:15:26;;;;;;;;;;;;;;;8.20;100.00;100402.56;5091585;28;20131;-76
2021/11/21 00:17:51;;;;;;;;;;;;;;;8.20;100.00;100398.09;5090374;28;20006;-76
2021/11/21 00:20:17;;;;;;;18.63;8.67;;;;;;;8.18;100.00;100396.56;5073186;28;20008;-76
2021/11/21 00:22:44;;;;;;;16.77;8.57;;;;;;;8.21;100.00;100399.72;5090191;28;20056;-76
2021/11/21 00:25:10;;;;;;;17.25;8.45;;;;;;;8.22;100.00;100385.47;5090542;28;20036;-76
2021/11/21 00:27:36;;;;;;;17.05;9.50;;;;;;;8.19;100.00;100376.94;5089927;28;20111;-75
2021/11/21 00:30:03;;;;;;;18.20;8.32;;;;;;;8.13;100.00;100367.78;5089810;28;20040;-76
2021/11/21 00:32:28;;;;;;;18.17;8.52;;;;;;;8.13;100.00;100375.75;5073217;28;20662;-76
2021/11/21 00:34:54;;;;;;;30.52;8.93;;;;;;;8.06;100.00;100366.75;5090048;28;20505;-76
2021/11/21 00:37:19;;;;;;;20.67;9.17;;;;;;;8.15;100.00;100400.38;5072844;28;20351;-76
2021/11/21 00:39:45;;;;;;;21.73;9.37;;;;;;;8.11;100.00;100396.34;5090669;28;20032;-76
2021/11/21 00:42:10;;;;;;;12.97;8.40;;;;;;;8.06;100.00;100397.81;5072839;28;20051;-77
2021/11/21 00:44:36;;;;;;;21.02;9.38;;;;;;;8.02;100.00;100398.09;5089258;28;20028;-76
2021/11/21 00:47:01;;;;;;;22.40;10.20;;;;;;;8.01;100.00;100409.75;5089662;28;20450;-76
2021/11/21 00:49:27;;;;;;;22.38;9.82;;;;;;;7.97;100.00;100416.34;5089460;28;20027;-76
2021/11/21 00:51:53;;;;;;;22.23;10.65;;;;;;;7.94;100.00;100427.31;5089388;28;20600;-77
2021/11/21 00:54:37;;;;;;;17.77;9.20;;;;;;;7.99;100.00;100454.25;5088855;28;20505;-77
2021/11/21 00:57:03;;;;;;;21.00;9.02;;;;;;;7.93;100.00;100457.50;5089510;28;20233;-76
2021/11/21 00:59:28;;;;;;;20.35;8.90;;;;;;;7.91;100.00;100464.78;5090318;28;20437;-76
2021/11/21 01:01:54;;;;;;;21.37;9.60;;;;;;;7.88;100.00;100464.28;5089361;28;20140;-76
2021/11/21 01:04:19;;;;;;;16.60;9.40;;;;;;;7.87;100.00;100474.09;5088901;28;20550;-76
2021/11/21 01:06:46;;;;;;;27.77;9.70;;;;;;;7.85;100.00;100462.75;5090079;28;20168;-75
2021/11/21 01:09:11;;;;;;;22.13;10.45;;;;;;;7.88;100.00;100475.75;5088844;28;20444;-76
2021/11/21 01:11:37;;;;;;;17.90;9.65;;;;;;;7.87;100.00;100474.09;5072238;28;20139;-76
2021/11/21 01:14:03;;;;;;;19.15;9.70;;;;;;;7.89;100.00;100496.03;5089622;28;20066;-76
2021/11/21 01:16:29;;;;;;;;;;;;;;;7.93;100.00;100507.19;5089455;28;20514;-76
2021/11/21 01:18:55;;;;;;;18.95;9.20;;;;;;;7.83;100.00;100500.13;5089795;28;19916;-75
2021/11/21 01:21:21;;;;;;;21.00;9.57;;;;;;;7.87;100.00;100505.16;5072113;28;20028;-76
2021/11/21 01:23:46;;;;;;;17.80;9.05;;;;;;;7.87;100.00;100508.63;5071762;28;20088;-76
2021/11/21 01:26:12;;;;;;;16.63;9.00;;;;;;;7.96;100.00;100520.16;5089673;28;20465;-76
2021/11/21 01:28:37;;;;;;;18.10;8.80;;;;;;;7.99;100.00;100549.97;5088784;28;20020;-76
2021/11/21 01:31:04;;;;;;;17.63;9.55;;;;;;;7.85;100.00;100523.91;5090074;28;20047;-76
2021/11/21 01:33:29;;;;;;;17.95;8.88;;;;;;;7.88;100.00;100539.53;5087945;28;20039;-76
2021/11/21 01:35:55;;;;;;;22.60;9.98;;;;;;;7.79;100.00;100529.81;5088594;28;20088;-76
2021/11/21 01:38:21;;;;;;;23.58;10.77;;;;;;;7.87;100.00;100563.63;5089582;28;20457;-76
2021/11/21 01:40:47;;;;;;;19.63;10.10;;;;;;;7.90;100.00;100584.59;5071712;28;20073;-77
2021/11/21 01:43:13;;;;;;;21.27;10.15;;;;;;;7.88;100.00;100582.06;5089616;28;20070;-76
2021/11/21 01:45:38;;;;;;;;;;;;;;;7.88;100.00;100592.69;5088971;28;20040;-76
2021/11/21 01:48:05;;;;;;;26.90;8.82;;;;;;;7.88;100.00;100613.13;5088307;28;19924;-76
2021/11/21 01:50:35;;;;;;;22.27;10.50;;;;;;;7.86;100.00;100633.72;5089278;28;20052;-75
2021/11/21 01:53:01;;;;;;;17.67;8.60;;;;;;;7.90;100.00;100640.41;5088858;28;20028;-75
2021/11/21 01:55:28;;;;;;;17.63;8.45;;;;;;;7.91;100.00;100639.41;5088209;28;20024;-75
2021/11/21 01:57:55;;;;;;;18.92;7.05;;;;;;;7.82;100.00;100638.50;5071325;28;20035;-76
2021/11/21 02:00:23;;;;;;;12.63;5.05;;;;;;;7.75;100.00;100634.72;5087961;28;20478;-76
2021/11/21 02:02:49;;;;;;;9.85;5.10;;;;;;;7.75;100.00;100632.94;5089008;28;20376;-76
2021/11/21 02:05:15;;;;;;;8.13;4.88;;;;;;;7.76;100.00;100644.38;5087834;28;20032;-76
2021/11/21 02:07:42;;;;;;;5.40;3.27;;;;;;;7.68;100.00;100644.25;5089034;28;20036;-76
2021/11/21 02:10:10;;;;;;;3.67;2.30;;;;;;;7.76;100.00;100657.66;5088100;28;20464;-76
2021/11/21 02:12:36;;;;;;;3.75;1.50;;;;;;;7.77;100.00;100664.66;5087957;28;20036;-77
2021/11/21 02:15:07;;;;;;;3.17;1.48;;;;;;;7.67;100.00;100647.91;5070659;28;20047;-76
2021/11/21 02:17:32;;;;;;;3.88;1.73;;;;;;;7.66;100.00;100647.09;5070986;28;20043;-76
2021/11/21 02:20:02;;;;;;;3.25;1.48;;;;;;;7.63;100.00;100630.59;5087717;28;20036;-76
2021/11/21 02:22:27;;;;;;;2.63;2.10;;;;;;;7.69;100.00;100641.47;5088669;28;20043;-76
2021/11/21 02:24:53;;;;;;;4.50;1.65;;;;;;;7.63;100.00;100644.69;5087552;28;20028;-77
2021/11/21 02:27:25;;;;;;;3.25;2.15;;;;;;;7.71;100.00;100652.78;5087641;28;20066;-76
2021/11/21 02:29:50;;;;;;;3.20;2.00;;;;;;;7.72;100.00;100643.81;5070606;28;20457;-76
2021/11/21 02:32:15;;;;;;;4.67;2.07;;;;;;;7.72;100.00;100640.34;5070821;28;20131;-76
2021/11/21 02:34:41;;;;;;;6.33;2.40;;;;;;;7.66;100.00;100630.31;5070217;28;20028;-76
2021/11/21 02:37:08;;;;;;;6.13;3.47;;;;;;;7.68;100.00;100644.25;5086499;28;20038;-76
2021/11/21 02:39:36;;;;;;;4.38;3.05;;;;;;;7.61;100.00;100644.03;5088443;28;20404;-76
2021/11/21 02:42:02;;;;;;;5.82;2.60;;;;;;;7.73;100.00;100676.59;5087441;28;20135;-75
2021/11/21 02:44:29;;;;;;;5.78;2.20;;;;;;;7.76;100.00;100673.63;5088122;28;20031;-75
2021/11/21 02:46:55;;;;;;;4.72;2.30;;;;;;;7.57;100.00;100640.81;5070551;28;20047;-75
2021/11/21 02:49:21;;;;;;;4.43;2.13;;;;;;;7.70;100.00;100684.81;5087130;28;20060;-76
2021/11/21 02:51:46;;;;;;;4.57;2.25;;;;;;;7.72;100.00;100693.50;5087279;28;20132;-76
2021/11/21 02:54:12;;;;;;;4.23;1.70;;;;;;;7.74;100.00;100707.47;5087141;28;20122;-76
2021/11/21 02:56:38;;;;;;;7.60;1.92;;;;;;;7.78;100.00;100708.88;5087495;28;20047;-75
2021/11/21 02:59:04;;;;;;;3.17;1.13;;;;;;;7.75;100.00;100698.50;5087509;28;20020;-76
2021/11/21 03:01:29;;;;;;;4.93;1.37;;;;;;;7.68;100.00;100671.69;5087517;28;20036;-75
2021/11/21 03:03:55;;;;;;;4.20;1.30;;;;;;;7.77;100.00;100701.84;5087893;28;20413;-75
2021/11/21 03:06:22;;;;;;;5.88;1.10;;;;;;;7.80;100.00;100696.28;5070421;28;20028;-75
2021/11/21 03:08:49;;;;;;;4.32;1.95;;;;;;;7.79;100.00;100681.28;5088217;28;20032;-75
2021/11/21 03:11:34;;;;;;;7.00;1.85;;;;;;;7.75;100.00;100666.63;5070607;28;20145;-76
2021/11/21 03:14:03;;;;;;;4.00;2.05;;;;;;;7.77;100.00;100665.50;5087960;28;20040;-76
2021/11/21 03:16:29;;;;;;;4.70;1.58;;;;;;;7.77;100.00;100667.31;5087981;28;20476;-76
2021/11/21 03:18:54;;;;;;;6.40;2.38;;;;;;;7.76;100.00;100657.66;5070351;28;20020;-76
2021/11/21 03:21:20;;;;;;;5.75;1.60;;;;;;;7.84;100.00;100671.06;5087198;28;20036;-75
2021/11/21 03:23:46;;;;;;;5.43;1.70;;;;;;;7.74;100.00;100647.19;5070233;28;20052;-75
2021/11/21 03:26:12;;;;;;;8.27;1.90;;;;;;;7.74;100.00;100641.03;5087216;28;20032;-76
2021/11/21 03:28:37;;;;;;;8.15;1.63;;;;;;;7.75;100.00;100643.56;5070251;28;20364;-76
2021/11/21 03:31:03;;;;;;;10.02;1.50;;;;;;;7.78;100.00;100642.41;5087924;28;20039;-76
2021/11/21 03:33:29;;;;;;;3.35;1.48;;;;;;;7.77;100.00;100632.75;5089659;28;20036;-75
2021/11/21 03:35:54;;;;;;;4.72;1.50;;;;;;;7.76;100.00;100626.63;5091037;28;20044;-76
2021/11/21 03:38:20;;;;;;;8.23;1.42;;;;;;;7.65;100.00;100608.19;5090837;28;20039;-76
2021/11/21 03:40:46;;;;;;;8.83;1.60;;;;;;;7.70;100.00;100621.91;5090881;28;20038;-76
2021/11/21 03:43:11;;;;;;;4.28;1.10;;;;;;;7.69;100.00;100620.22;5090464;28;20066;-75
2021/11/21 03:45:37;;;;;;;9.85;1.50;;;;;;;7.68;100.00;100625.66;5090711;28;20131;-76
2021/11/21 03:48:03;;;;;;;6.28;1.20;;;;;;;7.61;100.00;100623.59;5090514;28;20054;-75
2021/11/21 03:50:29;;;;;;;7.25;1.30;;;;;;;7.68;100.00;100638.94;5091553;28;20455;-75
2021/11/21 03:52:54;;;;;;;11.68;2.17;;;;;;;7.68;100.00;100623.00;5090265;28;20040;-75
2021/11/21 03:55:20;;;;;;;6.43;1.50;;;;;;;7.67;100.00;100626.66;5090558;28;20036;-75
2021/11/21 03:57:47;;;;;;;12.65;1.50;;;;;;;7.58;100.00;100613.25;5091592;28;20028;-75
2021/11/21 04:00:21;;;;;;;10.00;1.63;;;;;;;7.55;100.00;100596.78;5089871;28;20040;-75
2021/11/21 04:02:48;;;;;;;9.68;2.13;;;;;;;7.51;100.00;100612.16;5071789;28;20105;-76
2021/11/21 04:05:16;;;;;;;19.63;3.10;;;;;;;7.60;100.00;100635.22;5090388;28;20831;-75
2021/11/21 04:07:42;;;;;;;8.02;1.20;;;;;;;7.54;100.00;100622.53;5091363;28;20039;-75
2021/11/21 04:10:10;;;;;;;7.85;1.20;;;;;;;7.48;100.00;100614.28;5090261;28;20032;-75
2021/11/21 04:12:36;;;;;;;11.07;1.77;;;;;;;7.42;100.00;100615.69;5090328;28;20031;-75
2021/11/21 04:15:02;;;;;;;;;;;;;;;7.47;100.00;100632.06;5091313;28;20449;-75
2021/11/21 04:17:28;;;;;;;9.52;1.20;;;;;;;7.42;100.00;100633.47;5090532;28;19916;-75
2021/11/21 04:19:54;;;;;;;11.77;1.42;;;;;;;7.40;100.00;100636.28;5091183;28;20024;-75
2021/11/21 04:22:20;;;;;;;7.97;1.48;;;;;;;7.45;100.00;100639.34;5091219;28;20127;-75
2021/11/21 04:24:46;;;;;;;13.50;2.80;;;;;;;7.42;100.00;100638.78;5089890;28;20050;-75
2021/11/21 04:27:12;;;;;;;3.75;1.27;;;;;;;7.41;100.00;100637.94;5073473;28;20450;-75
2021/11/21 04:29:38;;;;;;;2.50;1.40;;;;;;;7.42;100.00;100641.44;5090916;28;20036;-75
2021/11/21 04:32:05;;;;;;;4.20;1.08;;;;;;;7.45;100.00;100652.63;5090806;28;20044;-75
2021/11/21 04:34:31;;;;;;;8.23;1.10;;;;;;;7.39;100.00;100639.91;5090579;28;20397;-76
2021/11/21 04:36:58;;;;;;;5.68;1.30;;;;;;;7.47;100.00;100655.97;5090836;28;20028;-75
2021/11/21 04:39:25;;;;;;;10.82;1.33;;;;;;;7.35;100.00;100644.69;5089878;28;20134;-75
2021/11/21 04:41:50;;;;;;;;;;;;;;;7.44;100.00;100653.56;5090207;28;20036;-75
2021/11/21 04:44:16;;;;;;;;;;;;;;;7.41;100.00;100651.22;5089603;28;19922;-75
2021/11/21 04:46:41;;;;;;;14.20;1.60;;;;;;;7.35;100.00;100657.09;5090675;28;19943;-75
2021/11/21 04:49:07;;;;;;;6.63;1.63;;;;;;;7.31;100.00;100661.88;5089754;28;20032;-75
2021/11/21 04:51:33;;;;;;;9.45;1.33;;;;;;;7.38;100.00;100670.94;5089585;28;20435;-75
2021/11/21 04:53:59;;;;;;;14.25;1.60;;;;;;;7.45;100.00;100681.84;5089195;28;20040;-75
2021/11/21 04:56:25;;;;;;;9.43;1.33;;;;;;;7.37;100.00;100655.13;5072670;28;20044;-75
2021/11/21 04:58:50;;;;;;;12.80;1.38;;;;;;;7.37;100.00;100652.47;5090545;28;20030;-75
2021/11/21 05:01:16;;;;;;;8.35;1.50;;;;;;;7.32;100.00;100654.75;5090368;28;20128;-75
2021/11/21 05:03:42;;;;;;;11.32;1.80;;;;;;;7.35;100.00;100654.44;5089191;28;20114;-75
2021/11/21 05:06:07;;;;;;;11.83;1.77;;;;;;;7.28;100.00;100648.03;5090663;28;20093;-75
2021/11/21 05:08:33;;;;;;;7.63;1.63;;;;;;;7.32;100.00;100647.59;5072338;28;20094;-75
2021/11/21 05:10:58;;;;;;;11.03;1.77;;;;;;;7.21;100.00;100628.34;5090156;28;20032;-75
2021/11/21 05:13:24;;;;;;;8.60;1.87;;;;;;;7.22;100.00;100638.81;5088791;28;20293;-75
2021/11/21 05:15:49;;;;;;;8.70;1.45;;;;;;;7.12;100.00;100616.78;5072232;28;20471;-75
2021/11/21 05:18:15;;;;;;;10.48;1.85;;;;;;;7.15;100.00;100619.16;5090042;28;20032;-75
2021/11/21 05:20:40;;;;;;;9.03;2.57;;;;;;;7.11;100.00;100613.28;5088978;28;20043;-75
2021/11/21 05:23:05;;;;;;;13.83;1.97;;;;;;;7.06;100.00;100601.41;5088679;28;20288;-75
2021/11/21 05:25:31;;;;;;;21.00;3.50;;;;;;;7.05;100.00;100583.84;5088989;28;20028;-75
2021/11/21 05:27:56;;;;;;;9.52;2.75;;;;;;;6.97;100.00;100563.28;5088949;28;20124;-75
2021/11/21 05:30:23;;;;;;;17.45;2.20;;;;;;;6.93;100.00;100548.63;5089611;28;20032;-75
2021/11/21 05:32:49;;;;;;;7.80;1.70;;;;;;;6.84;100.00;100536.25;5089750;28;20036;-75
2021/11/21 05:35:16;;;;;;;13.68;2.47;;;;;;;6.71;100.00;100512.66;5088371;28;20445;-75
2021/11/21 05:37:42;;;;;;;9.07;1.98;;;;;;;6.71;100.00;100518.78;5071811;28;20115;-74
2021/11/21 05:40:09;;;;;;;18.27;2.75;;;;;;;6.62;100.00;100519.66;5071957;28;20138;-75
2021/11/21 05:42:35;;;;;;;13.82;2.97;;;;;;;6.54;100.00;100522.19;5088529;28;20056;-75
2021/11/21 05:45:01;;;;;;;10.45;1.73;;;;;;;6.55;100.00;100534.47;5089274;28;20137;-75
2021/11/21 05:47:26;;;;;;;13.57;1.83;;;;;;;6.47;100.00;100526.38;5088676;28;20361;-75
2021/11/21 05:49:53;;;;;;;14.25;2.45;;;;;;;6.42;100.00;100525.97;5089269;28;20286;-75
2021/11/21 05:52:18;;;;;;;13.38;2.10;;;;;;;6.36;100.00;100531.84;5088577;28;20032;-75
2021/11/21 05:54:44;;;;;;;10.30;2.83;;;;;;;6.40;100.00;100544.66;5087842;28;20040;-75
2021/11/21 05:57:12;;;;;;;13.43;2.60;;;;;;;6.40;100.00;100557.09;5071180;28;20054;-75
2021/11/21 05:59:39;;;;;;;10.23;1.45;;;;;;;6.29;100.00;100537.69;5088439;28;20509;-75
2021/11/21 06:02:04;;;;;;;11.55;1.55;;;;;;;6.34;100.00;100556.69;5088254;28;20039;-75
2021/11/21 06:04:30;;;;;;;31.48;3.30;;;;;;;6.31;100.00;100564.91;5070854;28;20461;-75
2021/11/21 06:06:55;;;;;;;8.68;1.67;;;;;;;6.27;100.00;100576.75;5089119;28;20039;-75
2021/11/21 06:09:21;;;;;;;20.92;3.25;;;;;;;6.19;100.00;100587.22;5088081;28;20043;-75
2021/11/21 06:11:46;;;;;;;9.60;1.87;;;;;;;6.22;100.00;100618.75;5089097;28;20031;-75
2021/11/21 06:14:12;;;;;;;9.45;2.70;;;;;;;6.32;100.00;100655.88;5070907;28;20278;-75
2021/11/21 06:16:38;;;;;;;18.40;3.50;;;;;;;6.28;100.00;100671.25;5088244;28;20042;-75
2021/11/21 06:19:03;;;;;;;11.17;2.50;;;;;;;6.24;100.00;100679.59;5088016;28;20043;-75
2021/11/21 06:21:29;;;;;;;15.55;3.00;;;;;;;6.38;100.00;100708.38;5087995;28;20044;-75
2021/11/21 06:23:55;;;;;;;24.93;4.90;;;;;;;6.43;100.00;100723.88;5070913;28;20032;-75
2021/11/21 06:26:20;;;;;;;16.25;3.45;;;;;;;6.42;100.00;100736.31;5071089;28;20480;-75
2021/11/21 06:28:46;;;;;;;15.63;3.22;;;;;;;6.39;100.00;100749.00;5087781;28;20116;-75
2021/11/21 06:31:12;;;;;;;11.85;3.25;;;;;;;6.32;100.00;100757.50;5087932;28;20028;-74
2021/11/21 06:33:37;;;;;;;21.47;4.93;;;;;;;6.38;100.00;100765.88;5087289;28;20043;-74
2021/11/21 06:36:03;;;;;;;27.23;3.20;;;;;;;6.32;100.00;100761.94;5088004;28;20482;-74
2021/11/21 06:38:32;;;;;;;10.85;2.65;;;;;;;6.50;100.00;100794.81;5088693;28;20262;-74
2021/11/21 06:40:58;;;;;;;23.67;3.13;;;;;;;6.43;100.00;100780.41;5088626;28;20392;-75
2021/11/21 06:43:24;;;;;;;;;;;;;;;6.41;100.00;100779.69;5087843;28;20047;-75
2021/11/21 06:45:49;;;;;;;8.98;1.52;;;;;;;6.35;100.00;100782.91;5087493;28;19908;-75
2021/11/21 06:48:19;;;;;;;18.98;3.05;;;;;;;6.42;100.00;100799.97;5088548;28;20040;-75
2021/11/21 06:50:48;;;;;;;13.57;2.08;;;;;;;6.28;100.00;100777.31;5087577;28;20043;-75
2021/11/21 06:53:13;;;;;;;25.98;4.07;;;;;;;6.18;100.00;100760.53;5087199;28;20131;-75
2021/11/21 06:55:39;;;;;;;10.77;2.30;;;;;;;6.14;100.00;100753.81;5087875;28;20123;-75
2021/11/21 06:58:04;;;;;;;19.33;3.20;;;;;;;6.14;100.00;100759.09;5088604;28;20110;-75
2021/11/21 07:00:29;;;;;;;19.63;3.67;;;;;;;6.07;100.00;100737.59;5089303;28;21025;-75
2021/11/21 07:02:55;;;;;;;14.40;2.53;;;;;;;6.00;100.00;100714.41;5089347;28;20139;-75
2021/11/21 07:05:20;;;;;;;15.53;4.93;;;;;;;6.02;100.00;100708.00;5088619;28;20285;-75
2021/11/21 07:07:46;;;;;;;17.20;2.10;;;;;;;5.96;100.00;100673.25;5074770;28;20046;-75
2021/11/21 07:10:12;;;;;;;17.75;3.15;;;;;;;5.90;100.00;100646.28;5092701;28;20040;-75
2021/11/21 07:12:38;;;;;;;;;;;;;;;5.89;100.00;100639.28;5093179;28;20142;-75
2021/11/21 07:15:03;;;;;;;;;;;;;;;5.79;100.00;100606.63;5075753;28;20007;-75
2021/11/21 07:17:29;;;;;;;14.07;1.43;;;;;;;5.71;100.00;100579.97;5092768;28;19922;-76
2021/11/21 07:19:54;;;;;;;8.77;2.13;;;;;;;5.52;100.00;100532.25;5092597;28;20097;-76
2021/11/21 07:22:20;;;;;;;10.37;1.87;;;;;;;5.60;100.00;100558.91;5093476;28;20051;-75
2021/11/21 07:24:46;;;;;;;18.63;3.42;;;;;;;5.49;100.00;100526.25;5092162;28;20032;-75
2021/11/21 07:27:11;;;;;;;16.10;4.40;;;;;;;5.55;100.00;100531.97;5093462;28;20039;-76
2021/11/21 07:29:36;;;;;;;20.10;3.58;;;;;;;5.55;100.00;100539.91;5092181;28;20066;-76
2021/11/21 07:32:03;;;;;;;21.90;2.63;;;;;;;5.54;100.00;100535.59;5092411;28;20032;-75
2021/11/21 07:34:29;;;;;;;24.88;3.05;;;;;;;5.60;100.00;100565.03;5090936;28;20483;-75
2021/11/21 07:36:56;;;;;;;15.65;3.03;;;;;;;5.59;100.00;100579.25;5090910;28;20184;-76
2021/11/21 07:39:21;;;;;;;10.88;3.40;;;;;;;5.72;100.00;100613.44;5090113;28;20457;-75
2021/11/21 07:41:47;;;;;;;23.67;3.38;;;;;;;5.87;100.00;100643.06;5091674;28;20046;-76
2021/11/21 07:44:13;;;;;;;28.23;3.28;;;;;;;6.01;100.00;100684.28;5090861;28;20031;-75
2021/11/21 07:46:39;;;;;;;24.23;3.58;;;;;;;6.25;100.00;100715.72;5092154;28;20562;-75
2021/11/21 07:49:05;;;;;;;13.60;2.30;;;;;;;6.66;100.00;100756.31;5073994;28;20565;-76
2021/11/21 07:51:31;;;;;;;15.45;1.95;;;;;;;6.87;100.00;100772.97;5091756;28;20032;-75
2021/11/21 07:53:56;;;;;;;16.55;3.10;;;;;;;6.70;100.00;100726.72;5091542;28;20117;-75
2021/11/21 07:56:22;;;;;;;12.88;1.85;;;;;;;6.42;100.00;100655.91;5090881;28;20465;-76
2021/11/21 07:58:47;;;;;;;5.93;1.07;;;;;;;6.25;100.00;100577.88;5091948;28;20024;-75
2021/11/21 08:01:13;;;;;;;11.73;1.48;;;;;;;6.17;100.00;100535.31;5091811;28;20738;-74
2021/11/21 08:03:38;;;;;;;14.07;1.35;;;;;;;6.05;100.00;100476.31;5074387;28;20043;-75
2021/11/21 08:06:04;;;;;;;5.47;1.10;;;;;;;5.99;100.00;100458.31;5074717;28;20067;-75
2021/11/21 08:08:30;;;;;;;5.95;1.75;;;;;;;6.04;100.00;100435.72;5074450;28;20064;-75
2021/11/21 08:10:56;;;;;;;8.38;1.67;;;;;;;5.93;100.00;100404.88;5090279;28;20150;-74
2021/11/21 08:13:23;;;;;;;8.75;1.90;;;;;;;5.93;100.00;100396.91;5090892;28;20402;-75
2021/11/21 08:15:49;;;;;;;8.73;1.00;;;;;;;5.79;100.00;100373.50;5091212;28;20118;-75
2021/11/21 08:18:15;;;;;;;7.53;1.10;;;;;;;5.86;100.00;100381.72;5089641;28;20115;-75
2021/11/21 08:20:40;;;;;;;10.13;1.63;;;;;;;5.83;100.00;100380.22;5091120;28;20035;-75
2021/11/21 08:23:06;;;;;;;9.02;1.40;;;;;;;5.71;100.00;100365.41;5089885;28;20063;-76
2021/11/21 08:25:32;;;;;;;15.40;1.45;;;;;;;5.89;100.00;100397.34;5090083;28;20063;-75
2021/11/21 08:27:57;;;;;;;10.45;1.33;;;;;;;5.89;100.00;100397.34;5089936;28;20028;-75
2021/11/21 08:30:24;;;;;;;17.60;1.77;;;;;;;6.08;100.00;100430.97;5090064;28;20483;-75
2021/11/21 08:32:50;;;;;;;12.23;2.05;;;;;;;6.12;100.00;100425.25;5090856;28;20062;-75
2021/11/21 08:35:16;;;;;;;20.40;6.50;;;;;;;6.22;100.00;100433.19;5089403;28;20024;-75
2021/11/21 08:37:42;;;;;;;10.10;2.58;;;;;;;6.44;100.00;100453.25;5089686;28;20101;-75
2021/11/21 08:40:09;;;;;;;6.70;1.88;;;;;;;6.79;100.00;100483.59;5089941;28;20101;-75
2021/11/21 08:42:36;;;;;;;14.48;2.97;;;;;;;7.09;100.00;100497.59;5089047;28;20461;-75
2021/11/21 08:45:03;;;;;;;10.93;2.25;;;;;;;7.17;100.00;100461.38;5088350;28;20051;-75
2021/11/21 08:47:28;;;;;;;14.75;2.28;;;;;;;7.33;100.00;100436.00;5090606;28;20522;-76
2021/11/21 08:49:54;;;;;;;14.67;1.60;;;;;;;7.56;100.00;100431.06;5090392;28;20028;-75
2021/11/21 08:52:19;;;;;;;11.52;2.55;;;;;;;7.72;100.00;100411.81;5089451;28;20054;-75
2021/11/21 08:54:45;;;;;;;8.77;1.77;;;;;;;8.29;100.00;100438.88;5072394;28;20085;-75
2021/11/21 08:57:10;;;;;;;10.20;3.10;;;;;;;8.90;100.00;100434.44;5090350;28;20032;-74
2021/11/21 08:59:36;;;;;;;15.00;2.07;;;;;;;9.41;100.00;100422.00;5089437;28;20114;-75
2021/11/21 09:02:02;;;;;;;13.65;2.50;;;;;;;10.46;96.93;100448.88;5090202;28;20310;-75
2021/11/21 09:04:27;;;;;;;10.73;1.60;;;;;;;11.32;93.38;100401.84;5089857;28;20867;-75
2021/11/21 09:06:53;;;;;;;8.13;1.87;;;;;;;11.45;88.46;100306.88;5072497;28;20032;-76
2021/11/21 09:09:18;;;;;;;8.77;2.07;;;;;;;11.57;86.01;100254.69;5072281;28;20290;-76
2021/11/21 09:11:44;;;;;;;10.93;2.10;;;;;;;11.75;83.83;100212.38;5089276;28;20038;-75
2021/11/21 09:14:09;;;;;;;11.15;2.53;;;;;;;11.40;82.47;100174.63;5088972;28;20043;-76
2021/11/21 09:16:35;;;;;;;8.27;1.90;;;;;;;11.52;83.00;100220.47;5089181;28;20035;-76
2021/11/21 09:19:01;;;;;;;16.03;3.00;;;;;;;11.42;82.17;100177.09;5090008;28;20089;-76
2021/11/21 09:21:26;;;;;;;24.58;2.70;;;;;;;11.24;81.79;100158.75;5072202;28;20435;-76
2021/11/21 09:23:52;;;;;;;11.43;3.38;;;;;;;10.58;82.92;100147.72;5088629;28;20058;-77
2021/11/21 09:26:18;;;;;;;11.20;1.80;;;;;;;10.51;83.55;100168.97;5072331;28;20048;-77
2021/11/21 09:28:43;;;;;;;15.77;2.97;;;;;;;10.44;84.68;100197.38;5072163;28;20743;-76
2021/11/21 09:31:09;;;;;;;16.35;3.28;;;;;;;10.66;85.39;100248.31;5071749;28;20032;-76
2021/11/21 09:33:35;;;;;;;10.93;2.10;;;;;;;10.47;85.12;100186.34;5089149;28;20421;-77
2021/11/21 09:36:01;;;;;;;13.88;2.50;;;;;;;9.94;85.41;100156.72;5089752;28;20036;-77
2021/11/21 09:38:27;;;;;;;13.82;2.67;;;;;;;9.43;86.49;100147.38;5089583;28;20035;-76
2021/11/21 09:40:54;;;;;;;13.07;2.15;;;;;;;9.18;87.23;100144.75;5088946;28;20024;-76
2021/11/21 09:43:20;;;;;;;19.23;3.80;;;;;;;8.85;87.84;100149.25;5088477;28;20043;-77
2021/11/21 09:45:46;;;;;;;15.40;1.77;;;;;;;10.14;88.74;100317.19;5088546;28;20040;-76
2021/11/21 09:48:11;;;;;;;9.80;1.60;;;;;;;11.41;85.06;100314.44;5088568;28;20024;-76
2021/11/21 09:50:40;;;;;;;13.48;2.83;;;;;;;11.47;82.65;100227.34;5089404;28;20437;-76
2021/11/21 09:53:12;;;;;;;9.23;2.38;;;;;;;12.46;79.65;100244.03;5089213;28;20039;-77
2021/11/21 09:55:38;;;;;;;6.70;1.73;;;;;;;13.15;75.79;100197.16;5089403;28;20047;-76
2021/11/21 09:58:05;;;;;;;12.43;2.10;;;;;;;13.40;73.37;100160.91;5071690;28;20032;-76
2021/11/21 10:00:32;;;;;;;10.85;2.08;;;;;;;13.01;72.04;100051.50;5071349;28;20153;-76
2021/11/21 10:03:03;;;;;;;6.90;2.33;;;;;;;13.24;72.82;100102.19;5086028;28;20036;-75
2021/11/21 10:05:33;;;;;;;14.02;2.33;;;;;;;12.28;73.19;100005.41;5087701;28;20119;-75
2021/11/21 10:08:09;;;;;;;9.18;2.20;;;;;;;11.03;75.16;99953.75;5088230;28;20484;-75
2021/11/21 10:10:37;;;;;;;;;;;;;;;11.20;78.86;100136.06;5088571;28;20434;-75
2021/11/21 10:13:02;;;;;;;12.18;2.25;;;;;;;11.95;77.60;100163.72;5087893;28;20462;-76
2021/11/21 10:15:29;;;;;;;11.67;1.87;;;;;;;13.08;75.13;100189.88;5087984;28;20024;-76
2021/11/21 10:17:55;;;;;;;10.90;2.47;;;;;;;13.81;72.45;100162.81;5088001;28;20032;-77
2021/11/21 10:20:25;;;;;;;;;;;;;;;12.85;73.24;100076.72;5089320;28;20035;-76
2021/11/21 10:23:03;;;;;;;12.05;2.40;;;;;;;13.33;72.13;100073.41;5087807;28;20260;-76
2021/11/21 10:25:31;;;;;;;13.93;2.75;;;;;;;13.79;69.73;100072.81;5087999;28;20567;-76
2021/11/21 10:28:08;;;;;;;11.43;2.00;;;;;;;14.18;68.81;100082.88;5087994;28;20031;-77
2021/11/21 10:30:52;;;;;;;17.50;3.05;;;;;;;13.39;68.71;99947.44;5087883;28;20047;-77
2021/11/21 10:33:22;;;;;;;12.25;2.80;;;;;;;12.36;72.16;99975.81;5087163;28;20040;-76
2021/11/21 10:36:07;;;;;;;15.70;2.03;;;;;;;12.99;72.48;100073.13;5070966;28;20156;-77
2021/11/21 10:38:42;;;;;;;12.40;2.08;;;;;;;12.98;71.41;100022.44;5087919;28;20042;-76
2021/11/21 10:41:36;;;;;;;15.02;2.47;;;;;;;14.12;69.15;100078.31;5087604;28;20036;-77
2021/11/21 10:44:08;;;;;;;11.85;2.80;;;;;;;13.25;69.89;99976.00;5070674;28;20101;-77
2021/11/21 10:46:33;;;;;;;12.80;2.42;;;;;;;12.63;70.67;99925.97;5087585;28;20034;-78
2021/11/21 10:49:50;;;;;;;17.63;4.05;;;;;;;12.95;71.32;100053.13;5070869;28;20485;-77
2021/11/21 10:52:18;;;;;;;9.75;1.88;;;;;;;13.65;69.01;100032.53;5069453;28;20077;-77
2021/11/21 10:54:46;;;;;;;11.32;1.77;;;;;;;13.75;67.97;99999.97;5069352;28;20135;-78
2021/11/21 10:57:20;;;;;;;9.45;2.08;;;;;;;13.81;67.01;99974.19;5076972;28;20109;-78
2021/11/21 10:59:54;;;;;;;74.10;35.72;;;;;;;13.67;69.60;100016.22;5087065;28;20030;-79
2021/11/21 11:02:38;;;;;;;56.30;28.23;;;;;;;13.79;70.97;100065.63;5071328;28;20046;-78
2021/11/21 11:05:11;;;;;;;31.77;12.20;;;;;;;13.55;68.92;99974.91;5072409;28;20457;-79
2021/11/21 11:07:43;;;;;;;13.27;3.90;;;;;;;13.40;68.82;99951.78;5090162;28;20161;-80
2021/11/21 11:10:36;;;;;;;9.82;1.83;;;;;;;13.60;68.00;99996.59;5088779;28;20457;-78
2021/11/21 11:13:11;;;;;;;6.15;2.00;;;;;;;13.54;68.76;99976.78;5087018;28;20055;-78
2021/11/21 11:15:39;;;;;;;9.05;1.75;;;;;;;12.93;68.97;99902.47;5087505;28;20369;-78
2021/11/21 11:18:07;;;;;;;10.30;1.80;;;;;;;12.19;69.73;99866.34;5070635;28;20035;-78
2021/11/21 11:20:40;;;;;;;9.50;2.30;;;;;;;11.82;71.79;99953.88;5087433;28;20093;-78
2021/11/21 11:23:06;;;;;;;16.33;2.90;;;;;;;11.49;74.00;100017.66;5087082;28;20058;-78